createdAt,value
2022-12-24T00:00:12.255Z,97932.72
2022-12-24T00:02:39.350Z,97938.34
2022-12-24T00:05:07.066Z,97935.72
2022-12-24T00:07:33.678Z,97939.91
2022-12-24T00:10:00.377Z,97937.03
2022-12-24T00:12:27.074Z,97947.53
2022-12-24T00:14:53.738Z,97952.59
2022-12-24T00:17:20.497Z,97960.25
2022-12-24T00:19:47.690Z,97959.31
2022-12-24T00:22:14.445Z,97964.31
2022-12-24T00:24:41.269Z,97965.22
2022-12-24T00:27:08.038Z,97959.56
2022-12-24T00:29:34.763Z,97955.16
2022-12-24T00:32:01.525Z,97956.47
2022-12-24T00:34:28.490Z,97965.50
2022-12-24T00:36:55.496Z,97951.22
2022-12-24T00:39:22.158Z,97951.69
2022-12-24T00:41:48.866Z,97952.03
2022-12-24T00:44:15.761Z,97964.59
2022-12-24T00:46:42.622Z,97973.78
2022-12-24T00:49:12.264Z,97962.97
2022-12-24T00:51:39.390Z,97957.19
2022-12-24T00:54:07.167Z,97965.75
2022-12-24T00:56:34.470Z,97965.81
2022-12-24T00:59:01.423Z,97965.56
2022-12-24T01:01:28.645Z,97965.28
2022-12-24T01:04:14.176Z,97967.81
2022-12-24T01:06:41.024Z,97971.25
2022-12-24T01:09:08.006Z,97987.69
2022-12-24T01:11:34.732Z,97996.50
2022-12-24T01:14:01.340Z,98001.22
2022-12-24T01:16:28.081Z,98015.09
2022-12-24T01:18:54.966Z,98009.16
2022-12-24T01:21:21.697Z,98011.69
2022-12-24T01:23:49.032Z,98028.63
2022-12-24T01:26:15.815Z,98025.41
2022-12-24T01:28:42.711Z,98022.91
2022-12-24T01:31:18.119Z,98024.47
2022-12-24T01:33:46.467Z,98030.44
2022-12-24T01:36:14.251Z,98035.59
2022-12-24T01:38:41.971Z,98027.63
2022-12-24T01:41:37.472Z,98021.34
2022-12-24T01:44:23.133Z,98035.44
2022-12-24T01:46:52.111Z,98036.44
2022-12-24T01:49:19.163Z,98028.59
2022-12-24T01:51:54.608Z,98019.44
2022-12-24T01:54:27.602Z,98021.28
2022-12-24T01:57:01.226Z,98010.97
2022-12-24T01:59:29.310Z,98007.44
2022-12-24T02:01:56.262Z,98009.81
2022-12-24T02:04:36.789Z,98016.56
2022-12-24T02:07:04.041Z,98008.91
2022-12-24T02:09:30.845Z,98021.88
2022-12-24T02:11:57.963Z,98017.56
2022-12-24T02:14:26.730Z,98009.97
2022-12-24T02:17:12.131Z,98023.75
2022-12-24T02:20:17.402Z,98028.72
2022-12-24T02:22:58.452Z,98029.66
2022-12-24T02:25:49.552Z,98009.31
2022-12-24T02:28:34.791Z,98030.34
2022-12-24T02:31:08.932Z,98038.13
2022-12-24T02:33:43.114Z,98046.09
2022-12-24T02:36:15.433Z,98037.84
2022-12-24T02:38:51.767Z,98049.59
2022-12-24T02:41:26.675Z,98056.94
2022-12-24T02:43:56.496Z,98059.59
2022-12-24T02:46:27.982Z,98063.91
2022-12-24T02:48:56.707Z,98072.06
2022-12-24T02:51:25.280Z,98063.75
2022-12-24T02:53:52.360Z,98046.91
2022-12-24T02:56:40.724Z,98050.63
2022-12-24T02:59:45.554Z,98061.56
2022-12-24T03:02:40.237Z,98072.09
2022-12-24T03:05:34.874Z,98111.03
2022-12-24T03:08:16.109Z,98099.47
2022-12-24T03:11:01.298Z,98100.72
2022-12-24T03:13:28.978Z,98083.50
2022-12-24T03:15:55.689Z,98092.03
2022-12-24T03:18:27.794Z,98095.56
2022-12-24T03:21:00.666Z,98104.97
2022-12-24T03:23:28.081Z,98116.69
2022-12-24T03:25:55.251Z,98102.91
2022-12-24T03:28:26.638Z,98110.69
2022-12-24T03:30:53.671Z,98114.44
2022-12-24T03:33:21.217Z,98110.31
2022-12-24T03:35:47.968Z,98120.84
2022-12-24T03:38:14.679Z,98121.09
2022-12-24T03:40:41.510Z,98112.97
2022-12-24T03:43:08.199Z,98116.22
2022-12-24T03:45:34.997Z,98126.22
2022-12-24T03:48:01.794Z,98124.25
2022-12-24T03:50:28.546Z,98129.88
2022-12-24T03:52:55.473Z,98128.22
2022-12-24T03:55:22.486Z,98115.91
2022-12-24T03:57:49.511Z,98120.13
2022-12-24T04:00:16.950Z,98115.31
2022-12-24T04:02:43.696Z,98128.75
2022-12-24T04:05:19.677Z,98135.91
2022-12-24T04:07:46.806Z,98124.84
2022-12-24T04:10:14.953Z,98138.44
2022-12-24T04:12:41.716Z,98133.50
2022-12-24T04:15:08.884Z,98131.06
2022-12-24T04:17:35.887Z,98136.06
2022-12-24T04:20:02.631Z,98140.94
2022-12-24T04:22:29.338Z,98145.28
2022-12-24T04:24:56.126Z,98139.72
2022-12-24T04:27:28.240Z,98133.63
2022-12-24T04:29:56.981Z,98139.09
2022-12-24T04:32:26.024Z,98126.28
2022-12-24T04:34:52.738Z,98140.75
2022-12-24T04:37:19.376Z,98126.88
2022-12-24T04:39:46.053Z,98134.50
2022-12-24T04:42:12.779Z,98118.09
2022-12-24T04:44:39.413Z,98118.69
2022-12-24T04:47:06.032Z,98122.63
2022-12-24T04:49:32.829Z,98125.34
2022-12-24T04:51:59.538Z,98114.31
2022-12-24T04:54:26.289Z,98118.00
2022-12-24T04:56:53.028Z,98124.41
2022-12-24T04:59:19.785Z,98126.53
2022-12-24T05:01:46.548Z,98126.03
2022-12-24T05:04:13.272Z,98116.41
2022-12-24T05:06:39.973Z,98115.25
2022-12-24T05:09:06.666Z,98118.63
2022-12-24T05:11:33.347Z,98118.09
2022-12-24T05:14:00.042Z,98119.66
2022-12-24T05:16:27.014Z,98120.22
2022-12-24T05:18:53.989Z,98123.88
2022-12-24T05:21:23.734Z,98137.25
2022-12-24T05:24:10.629Z,98139.59
2022-12-24T05:26:44.139Z,98143.50
2022-12-24T05:29:14.265Z,98154.97
2022-12-24T05:31:42.335Z,98155.22
2022-12-24T05:34:10.333Z,98166.38
2022-12-24T05:36:37.376Z,98167.06
2022-12-24T05:39:07.207Z,98157.22
2022-12-24T05:41:36.721Z,98160.19
2022-12-24T05:44:03.464Z,98161.41
2022-12-24T05:46:30.134Z,98168.28
2022-12-24T05:48:56.851Z,98166.13
2022-12-24T05:51:23.510Z,98174.97
2022-12-24T05:53:51.417Z,98165.88
2022-12-24T05:56:22.661Z,98161.72
2022-12-24T05:58:49.951Z,98167.63
2022-12-24T06:01:16.977Z,98166.00
2022-12-24T06:03:43.741Z,98163.91
2022-12-24T06:06:13.395Z,98168.06
2022-12-24T06:08:41.671Z,98169.31
2022-12-24T06:11:10.852Z,98174.53
2022-12-24T06:13:38.303Z,98171.22
2022-12-24T06:16:07.251Z,98166.81
2022-12-24T06:18:35.596Z,98174.41
2022-12-24T06:21:03.340Z,98175.88
2022-12-24T06:23:32.423Z,98180.75
2022-12-24T06:26:01.073Z,98179.53
2022-12-24T06:28:29.416Z,98182.94
2022-12-24T06:31:02.338Z,98192.94
2022-12-24T06:33:30.698Z,98176.47
2022-12-24T06:35:57.421Z,98189.31
2022-12-24T06:38:24.394Z,98197.31
2022-12-24T06:40:51.198Z,98193.13
2022-12-24T06:43:17.987Z,98193.06
2022-12-24T06:45:46.693Z,98194.25
2022-12-24T06:48:14.575Z,98207.19
2022-12-24T06:50:41.661Z,98210.75
2022-12-24T06:53:08.901Z,98204.53
2022-12-24T06:55:35.661Z,98203.19
2022-12-24T06:58:03.704Z,98200.13
2022-12-24T07:00:30.481Z,98209.75
2022-12-24T07:02:57.129Z,98196.94
2022-12-24T07:05:23.880Z,98196.00
2022-12-24T07:07:50.628Z,98215.19
2022-12-24T07:10:18.451Z,98198.50
2022-12-24T07:12:45.719Z,98204.59
2022-12-24T07:15:13.446Z,98192.13
2022-12-24T07:17:40.282Z,98207.94
2022-12-24T07:20:10.122Z,98202.00
2022-12-24T07:22:36.844Z,98216.97
2022-12-24T07:25:03.766Z,98213.97
2022-12-24T07:27:30.781Z,98203.22
2022-12-24T07:29:57.452Z,98214.75
2022-12-24T07:32:24.133Z,98206.44
2022-12-24T07:34:50.797Z,98214.31
2022-12-24T07:37:17.604Z,98217.13
2022-12-24T07:39:44.951Z,98222.16
2022-12-24T07:42:11.563Z,98230.97
2022-12-24T07:44:38.982Z,98222.97
2022-12-24T07:47:05.748Z,98228.00
2022-12-24T07:49:32.509Z,98231.91
2022-12-24T07:51:59.216Z,98240.50
2022-12-24T07:54:25.860Z,98239.53
2022-12-24T07:56:52.483Z,98239.25
2022-12-24T07:59:19.188Z,98236.50
2022-12-24T08:01:45.996Z,98248.13
2022-12-24T08:04:13.339Z,98248.03
2022-12-24T08:06:40.197Z,98244.47
2022-12-24T08:09:06.915Z,98243.50
2022-12-24T08:11:33.709Z,98244.44
2022-12-24T08:14:00.362Z,98243.28
2022-12-24T08:16:27.063Z,98249.69
2022-12-24T08:18:53.803Z,98249.25
2022-12-24T08:21:20.494Z,98260.72
2022-12-24T08:23:47.519Z,98254.22
2022-12-24T08:26:14.147Z,98271.47
2022-12-24T08:28:41.175Z,98275.78
2022-12-24T08:31:08.115Z,98276.19
2022-12-24T08:33:35.198Z,98278.34
2022-12-24T08:36:02.885Z,98280.50
2022-12-24T08:38:29.829Z,98271.88
2022-12-24T08:40:56.670Z,98273.19
2022-12-24T08:43:25.453Z,98282.13
2022-12-24T08:45:52.907Z,98294.81
2022-12-24T08:48:20.044Z,98285.09
2022-12-24T08:50:46.818Z,98284.41
2022-12-24T08:53:13.835Z,98290.66
2022-12-24T08:55:40.606Z,98300.09
2022-12-24T08:58:07.376Z,98289.72
2022-12-24T09:00:34.106Z,98300.00
2022-12-24T09:03:00.968Z,98295.97
2022-12-24T09:05:27.812Z,98293.13
2022-12-24T09:07:54.478Z,98288.34
2022-12-24T09:10:21.409Z,98300.72
2022-12-24T09:12:48.120Z,98304.13
2022-12-24T09:15:14.892Z,98297.28
2022-12-24T09:17:41.620Z,98308.25
2022-12-24T09:20:09.479Z,98305.66
2022-12-24T09:22:38.021Z,98309.59
2022-12-24T09:25:06.266Z,98308.06
2022-12-24T09:27:33.239Z,98307.34
2022-12-24T09:29:59.985Z,98310.06
2022-12-24T09:32:26.719Z,98313.09
2022-12-24T09:34:53.737Z,98320.97
2022-12-24T09:37:20.750Z,98323.78
2022-12-24T09:39:47.749Z,98324.28
2022-12-24T09:42:32.901Z,98323.41
2022-12-24T09:45:05.328Z,98332.34
2022-12-24T09:47:39.851Z,98325.88
2022-12-24T09:50:30.547Z,98337.31
2022-12-24T09:53:00.524Z,98341.44
2022-12-24T09:55:32.450Z,98340.44
2022-12-24T09:58:02.173Z,98350.44
2022-12-24T10:00:33.201Z,98343.97
2022-12-24T10:02:59.998Z,98350.41
2022-12-24T10:05:39.540Z,98350.63
2022-12-24T10:08:21.540Z,98349.38
2022-12-24T10:10:54.218Z,98342.31
2022-12-24T10:13:32.898Z,98345.47
2022-12-24T10:16:03.283Z,98351.53
2022-12-24T10:18:47.284Z,98353.25
2022-12-24T10:21:33.463Z,98352.00
2022-12-24T10:24:24.884Z,98352.53
2022-12-24T10:27:01.043Z,98364.19
2022-12-24T10:29:31.359Z,98366.19
2022-12-24T10:32:11.046Z,98353.31
2022-12-24T10:35:02.221Z,98356.97
2022-12-24T10:37:30.175Z,98352.25
2022-12-24T10:40:02.608Z,98356.59
2022-12-24T10:42:50.109Z,98352.47
2022-12-24T10:45:20.627Z,98355.44
2022-12-24T10:47:52.478Z,98345.78
2022-12-24T10:50:29.758Z,98355.59
2022-12-24T10:53:13.281Z,98356.88
2022-12-24T10:55:40.233Z,98358.91
2022-12-24T10:58:15.408Z,98377.59
2022-12-24T11:00:42.473Z,98375.44
2022-12-24T11:03:12.191Z,98368.13
2022-12-24T11:05:40.101Z,98365.84
2022-12-24T11:08:20.133Z,98371.94
2022-12-24T11:10:58.083Z,98375.63
2022-12-24T11:13:37.445Z,98368.66
2022-12-24T11:16:05.553Z,98371.81
2022-12-24T11:18:36.494Z,98373.97
2022-12-24T11:21:04.939Z,98372.56
2022-12-24T11:23:31.737Z,98360.25
2022-12-24T11:25:59.125Z,98360.72
2022-12-24T11:28:29.103Z,98355.66
2022-12-24T11:31:21.132Z,98345.66
2022-12-24T11:33:51.018Z,98350.75
2022-12-24T11:36:22.879Z,98351.19
2022-12-24T11:38:57.813Z,98354.50
2022-12-24T11:41:26.250Z,98356.16
2022-12-24T11:44:03.676Z,98357.75
2022-12-24T11:46:47.067Z,98349.94
2022-12-24T11:49:19.673Z,98352.84
2022-12-24T11:52:20.948Z,98349.09
2022-12-24T11:54:59.783Z,98351.72
2022-12-24T11:57:34.660Z,98349.47
2022-12-24T12:00:01.383Z,98355.09
2022-12-24T12:02:37.312Z,98362.28
2022-12-24T12:05:16.362Z,98347.75
2022-12-24T12:07:47.110Z,98353.19
2022-12-24T12:10:19.762Z,98347.50
2022-12-24T12:13:15.758Z,98358.53
2022-12-24T12:16:12.455Z,98355.53
2022-12-24T12:18:42.169Z,98366.47
2022-12-24T12:21:18.101Z,98374.25
2022-12-24T12:23:52.425Z,98351.88
2022-12-24T12:26:28.800Z,98353.72
2022-12-24T12:29:04.353Z,98349.38
2022-12-24T12:31:37.035Z,98353.22
2022-12-24T12:34:11.759Z,98351.66
2022-12-24T12:36:51.587Z,98354.63
2022-12-24T12:39:18.429Z,98356.59
2022-12-24T12:42:09.522Z,98368.25
2022-12-24T12:45:06.074Z,98365.59
2022-12-24T12:47:38.778Z,98367.97
2022-12-24T12:50:14.816Z,98365.38
2022-12-24T12:52:50.484Z,98358.75
2022-12-24T12:55:38.625Z,98359.91
2022-12-24T12:58:15.924Z,98354.09
2022-12-24T13:00:47.321Z,98351.88
2022-12-24T13:03:52.680Z,98353.81
2022-12-24T13:07:10.570Z,98363.56
2022-12-24T13:09:46.057Z,98363.66
2022-12-24T13:12:39.831Z,98356.75
2022-12-24T13:15:24.399Z,98353.72
2022-12-24T13:18:09.406Z,98352.00
2022-12-24T13:20:42.107Z,98339.41
2022-12-24T13:23:22.128Z,98348.53
2022-12-24T13:25:57.629Z,98367.94
2022-12-24T13:28:24.481Z,98362.13
2022-12-24T13:31:24.521Z,98359.16
2022-12-24T13:33:53.944Z,98342.91
2022-12-24T13:36:21.705Z,98330.00
2022-12-24T13:38:53.634Z,98330.03
2022-12-24T13:41:41.357Z,98326.78
2022-12-24T13:44:13.002Z,98339.25
2022-12-24T13:47:03.250Z,98346.16
2022-12-24T13:49:42.647Z,98353.19
2022-12-24T13:52:12.601Z,98358.19
2022-12-24T13:54:51.439Z,98374.31
2022-12-24T13:57:36.510Z,98377.53
2022-12-24T14:00:29.276Z,98369.06
2022-12-24T14:03:14.721Z,98361.13
2022-12-24T14:05:44.855Z,98359.06
2022-12-24T14:08:27.571Z,98366.75
2022-12-24T14:11:09.734Z,98359.03
2022-12-24T14:13:39.250Z,98355.03
2022-12-24T14:16:11.931Z,98356.97
2022-12-24T14:18:40.826Z,98359.47
2022-12-24T14:21:15.512Z,98361.91
2022-12-24T14:23:54.642Z,98365.25
2022-12-24T14:26:35.420Z,98372.09
2022-12-24T14:29:44.547Z,98387.84
2022-12-24T14:32:16.201Z,98389.13
2022-12-24T14:34:43.742Z,98384.91
2022-12-24T14:37:15.776Z,98375.66
2022-12-24T14:39:46.619Z,98376.66
2022-12-24T14:42:51.278Z,98385.25
2022-12-24T14:45:50.107Z,98382.03
2022-12-24T14:48:36.348Z,98389.41
2022-12-24T14:51:18.353Z,98396.47
2022-12-24T14:54:20.068Z,98386.72
2022-12-24T14:56:47.074Z,98397.72
2022-12-24T14:59:19.506Z,98393.06
2022-12-24T15:01:46.713Z,98395.06
2022-12-24T15:04:18.165Z,98404.88
2022-12-24T15:06:53.656Z,98400.28
2022-12-24T15:09:26.077Z,98405.72
2022-12-24T15:11:56.160Z,98398.84
2022-12-24T15:14:25.132Z,98401.56
2022-12-24T15:16:58.776Z,98418.03
2022-12-24T15:19:37.743Z,98420.00
2022-12-24T15:22:14.745Z,98420.13
2022-12-24T15:24:46.474Z,98430.19
2022-12-24T15:27:25.132Z,98426.94
2022-12-24T15:29:56.103Z,98428.41
2022-12-24T15:32:23.092Z,98430.84
2022-12-24T15:34:52.701Z,98433.97
2022-12-24T15:37:23.063Z,98426.44
2022-12-24T15:40:10.779Z,98423.31
2022-12-24T15:42:42.392Z,98410.69
2022-12-24T15:45:27.184Z,98418.44
2022-12-24T15:48:01.541Z,98413.94
2022-12-24T15:50:33.903Z,98411.75
2022-12-24T15:53:21.063Z,98423.31
2022-12-24T15:56:27.481Z,98443.28
2022-12-24T15:59:31.382Z,98442.28
2022-12-24T16:02:27.387Z,98449.47
2022-12-24T16:04:54.327Z,98453.88
2022-12-24T16:07:25.564Z,98446.88
2022-12-24T16:09:52.387Z,98452.06
2022-12-24T16:12:23.412Z,98454.09
2022-12-24T16:14:57.559Z,98465.91
2022-12-24T16:17:26.808Z,98460.66
2022-12-24T16:19:56.908Z,98453.31
2022-12-24T16:22:34.900Z,98449.13
2022-12-24T16:25:23.675Z,98448.28
2022-12-24T16:27:50.630Z,98445.66
2022-12-24T16:30:18.296Z,98450.41
2022-12-24T16:32:46.331Z,98453.84
2022-12-24T16:35:27.935Z,98449.97
2022-12-24T16:37:55.474Z,98458.06
2022-12-24T16:40:27.277Z,98448.91
2022-12-24T16:43:15.333Z,98451.59
2022-12-24T16:45:43.844Z,98454.09
2022-12-24T16:48:19.000Z,98452.91
2022-12-24T16:50:45.762Z,98464.94
2022-12-24T16:53:17.750Z,98475.00
2022-12-24T16:55:45.700Z,98468.31
2022-12-24T16:58:13.623Z,98469.19
2022-12-24T17:00:40.766Z,98474.06
2022-12-24T17:03:07.854Z,98457.50
2022-12-24T17:05:38.802Z,98453.13
2022-12-24T17:08:06.253Z,98459.19
2022-12-24T17:10:33.247Z,98443.66
2022-12-24T17:13:00.890Z,98444.88
2022-12-24T17:15:28.062Z,98440.38
2022-12-24T17:17:55.028Z,98438.25
2022-12-24T17:20:24.447Z,98435.66
2022-12-24T17:22:52.038Z,98436.44
2022-12-24T17:25:18.977Z,98438.09
2022-12-24T17:27:45.774Z,98442.38
2022-12-24T17:30:12.565Z,98442.63
2022-12-24T17:32:39.670Z,98443.09
2022-12-24T17:35:07.327Z,98454.09
2022-12-24T17:37:34.096Z,98463.78
2022-12-24T17:40:00.922Z,98477.34
2022-12-24T17:42:27.714Z,98482.66
2022-12-24T17:44:54.406Z,98482.56
2022-12-24T17:47:21.109Z,98472.63
2022-12-24T17:49:47.740Z,98467.38
2022-12-24T17:52:14.447Z,98469.03
2022-12-24T17:54:41.068Z,98463.56
2022-12-24T17:57:07.782Z,98457.50
2022-12-24T17:59:34.722Z,98460.03
2022-12-24T18:02:01.541Z,98459.72
2022-12-24T18:04:28.324Z,98454.16
2022-12-24T18:07:01.685Z,98456.06
2022-12-24T18:09:29.525Z,98446.94
2022-12-24T18:11:56.245Z,98447.94
2022-12-24T18:14:22.971Z,98453.34
2022-12-24T18:16:49.893Z,98454.19
2022-12-24T18:19:16.717Z,98461.41
2022-12-24T18:21:43.673Z,98465.19
2022-12-24T18:24:12.391Z,98465.44
2022-12-24T18:26:39.328Z,98458.47
2022-12-24T18:29:08.519Z,98471.09
2022-12-24T18:31:35.951Z,98479.09
2022-12-24T18:34:05.820Z,98465.56
2022-12-24T18:36:33.023Z,98474.44
2022-12-24T18:38:59.737Z,98474.25
2022-12-24T18:41:29.400Z,98476.72
2022-12-24T18:43:56.965Z,98481.06
2022-12-24T18:46:26.558Z,98489.25
2022-12-24T18:48:54.708Z,98497.13
2022-12-24T18:51:23.360Z,98491.84
2022-12-24T18:53:51.141Z,98488.25
2022-12-24T18:56:20.864Z,98479.81
2022-12-24T18:58:48.557Z,98478.78
2022-12-24T19:01:20.923Z,98482.31
2022-12-24T19:03:49.123Z,98487.38
2022-12-24T19:06:16.619Z,98485.84
2022-12-24T19:09:00.755Z,98484.00
2022-12-24T19:11:30.906Z,98486.19
2022-12-24T19:13:58.240Z,98485.59
2022-12-24T19:16:25.844Z,98483.28
2022-12-24T19:18:52.534Z,98484.00
2022-12-24T19:21:19.347Z,98482.59
2022-12-24T19:23:47.248Z,98479.47
2022-12-24T19:26:16.082Z,98489.25
2022-12-24T19:28:44.767Z,98487.88
2022-12-24T19:31:14.554Z,98481.72
2022-12-24T19:33:44.213Z,98485.53
2022-12-24T19:36:14.250Z,98487.25
2022-12-24T19:38:41.582Z,98480.19
2022-12-24T19:41:13.336Z,98483.28
2022-12-24T19:43:42.496Z,98485.00
2022-12-24T19:46:10.687Z,98483.97
2022-12-24T19:48:38.587Z,98497.59
2022-12-24T19:51:08.896Z,98497.53
2022-12-24T19:53:36.649Z,98501.13
2022-12-24T19:56:04.249Z,98505.47
2022-12-24T19:58:32.648Z,98504.47
2022-12-24T20:01:15.221Z,98516.66
2022-12-24T20:03:44.414Z,98521.25
2022-12-24T20:06:12.503Z,98528.06
2022-12-24T20:08:39.768Z,98528.78
2022-12-24T20:11:08.393Z,98527.88
2022-12-24T20:13:35.995Z,98528.00
2022-12-24T20:16:08.451Z,98525.06
2022-12-24T20:18:35.438Z,98524.94
2022-12-24T20:21:04.575Z,98526.47
2022-12-24T20:23:31.574Z,98518.66
2022-12-24T20:26:00.235Z,98524.41
2022-12-24T20:28:28.175Z,98531.72
2022-12-24T20:30:55.595Z,98524.13
2022-12-24T20:33:22.514Z,98529.22
2022-12-24T20:35:49.258Z,98513.81
2022-12-24T20:38:16.646Z,98509.47
2022-12-24T20:40:44.702Z,98505.44
2022-12-24T20:43:12.675Z,98496.47
2022-12-24T20:45:39.422Z,98486.66
2022-12-24T20:48:06.607Z,98480.09
2022-12-24T20:50:33.571Z,98485.09
2022-12-24T20:53:00.258Z,98483.00
2022-12-24T20:55:26.921Z,98484.22
2022-12-24T20:57:53.646Z,98481.31
2022-12-24T21:00:20.908Z,98481.44
2022-12-24T21:02:47.840Z,98477.22
2022-12-24T21:05:15.276Z,98484.56
2022-12-24T21:07:43.506Z,98493.06
2022-12-24T21:10:12.315Z,98493.72
2022-12-24T21:12:58.888Z,98495.59
2022-12-24T21:15:39.533Z,98499.06
2022-12-24T21:18:11.711Z,98507.44
2022-12-24T21:20:40.383Z,98490.50
2022-12-24T21:23:07.288Z,98499.19
2022-12-24T21:25:34.196Z,98499.47
2022-12-24T21:28:01.328Z,98493.97
2022-12-24T21:30:28.336Z,98493.78
2022-12-24T21:32:55.175Z,98485.16
2022-12-24T21:35:21.895Z,98489.44
2022-12-24T21:37:48.546Z,98485.91
2022-12-24T21:40:15.436Z,98480.78
2022-12-24T21:42:42.165Z,98483.69
2022-12-24T21:45:09.635Z,98477.44
2022-12-24T21:47:38.104Z,98482.72
2022-12-24T21:50:28.243Z,98479.31
2022-12-24T21:53:17.444Z,98481.88
2022-12-24T21:55:44.285Z,98479.53
2022-12-24T21:58:10.968Z,98476.94
2022-12-24T22:00:37.658Z,98468.94
2022-12-24T22:03:04.755Z,98470.47
2022-12-24T22:05:34.076Z,98465.34
2022-12-24T22:08:19.295Z,98474.16
2022-12-24T22:11:04.697Z,98479.41
2022-12-24T22:13:32.072Z,98478.22
2022-12-24T22:15:58.910Z,98480.59
2022-12-24T22:18:26.422Z,98474.19
2022-12-24T22:20:53.138Z,98478.13
2022-12-24T22:23:20.096Z,98479.72
2022-12-24T22:25:47.260Z,98486.00
2022-12-24T22:28:14.177Z,98483.94
2022-12-24T22:30:42.641Z,98482.44
2022-12-24T22:33:10.090Z,98483.47
2022-12-24T22:35:39.514Z,98480.97
2022-12-24T22:38:08.126Z,98487.16
2022-12-24T22:40:34.832Z,98488.22
2022-12-24T22:43:01.513Z,98491.63
2022-12-24T22:45:28.278Z,98493.47
2022-12-24T22:47:55.420Z,98488.03
2022-12-24T22:50:23.519Z,98496.88
2022-12-24T22:52:50.239Z,98494.13
2022-12-24T22:55:16.920Z,98485.41
2022-12-24T22:57:43.664Z,98486.16
2022-12-24T23:00:17.781Z,98487.28
2022-12-24T23:02:44.586Z,98483.16
2022-12-24T23:05:14.653Z,98486.41
2022-12-24T23:07:41.774Z,98498.59
2022-12-24T23:10:08.860Z,98500.88
2022-12-24T23:12:54.279Z,98497.38
2022-12-24T23:15:20.955Z,98490.16
2022-12-24T23:17:49.103Z,98488.06
2022-12-24T23:20:16.292Z,98491.13
2022-12-24T23:22:43.111Z,98492.72
2022-12-24T23:25:10.057Z,98487.78
2022-12-24T23:27:36.711Z,98483.97
2022-12-24T23:30:03.997Z,98478.00
2022-12-24T23:32:30.609Z,98480.53
2022-12-24T23:34:57.294Z,98477.97
2022-12-24T23:37:27.040Z,98481.28
2022-12-24T23:39:57.792Z,98489.13
2022-12-24T23:42:24.499Z,98487.19
2022-12-24T23:44:51.407Z,98489.00
2022-12-24T23:47:18.776Z,98484.97
2022-12-24T23:49:45.515Z,98480.38
2022-12-24T23:52:12.554Z,98482.25
2022-12-24T23:54:39.301Z,98481.19
2022-12-24T23:57:05.965Z,98469.81
2022-12-24T23:59:34.073Z,98462.25
